Time;durP1;ratioP1;P1;durP2;ratioP2;P2;SDS_P1;SDS_P2;PMS_P1;PMS_P2;Temp;Humidity;BMP_temperature;BMP_pressure;BME280_temperature;BME280_humidity;BME280_pressure;Samples;Min_cycle;Max_cycle;Signal;HPM_P1;HPM_P2
2021/08/04 00:00:16;;;;;;;7.37;4.45;;;;;;;13.61;75.02;101148.19;1742283;82;21545;-83
2021/08/04 00:02:44;;;;;;;5.37;4.03;;;;;;;13.56;75.06;101146.75;1715676;83;21079;-83
2021/08/04 00:05:11;;;;;;;4.85;3.80;;;;;;;13.54;75.14;101143.19;1739316;82;22637;-83
2021/08/04 00:07:38;;;;;;;12.95;4.33;;;;;;;13.53;75.21;101145.80;1738192;82;21027;-83
2021/08/04 00:10:06;;;;;;;4.90;3.70;;;;;;;13.50;75.26;101147.97;1768345;80;21042;-83
2021/08/04 00:12:33;;;;;;;8.33;4.87;;;;;;;13.47;75.28;101141.73;1777876;79;21029;-83
2021/08/04 00:14:59;;;;;;;6.67;3.77;;;;;;;13.45;75.31;101149.63;1785126;79;21508;-83
2021/08/04 00:17:26;;;;;;;5.72;4.35;;;;;;;13.41;75.34;101147.78;1784865;80;21750;-83
2021/08/04 00:19:53;;;;;;;6.53;3.98;;;;;;;13.38;75.44;101145.98;1784872;80;22061;-83
2021/08/04 00:22:19;;;;;;;6.97;4.10;;;;;;;13.39;75.53;101150.83;1785109;80;21034;-83
2021/08/04 00:24:46;;;;;;;6.78;4.35;;;;;;;13.38;75.55;101151.68;1778140;80;20987;-83
2021/08/04 00:27:13;;;;;;;12.35;4.08;;;;;;;13.38;75.59;101151.27;1784878;80;21065;-83
2021/08/04 00:29:39;;;;;;;5.30;3.90;;;;;;;13.38;75.53;101153.00;1784957;80;21781;-82
2021/08/04 00:32:07;;;;;;;6.08;4.20;;;;;;;13.36;75.55;101146.39;1773978;80;21034;-83
2021/08/04 00:34:33;;;;;;;6.12;3.80;;;;;;;13.36;75.59;101149.03;1776473;80;21011;-83
2021/08/04 00:37:00;;;;;;;6.87;3.85;;;;;;;13.34;75.62;101152.05;1776477;80;21401;-83
2021/08/04 00:39:27;;;;;;;6.12;4.75;;;;;;;13.35;75.66;101152.96;1776485;80;21071;-83
2021/08/04 00:41:53;;;;;;;5.92;3.80;;;;;;;13.35;75.70;101152.96;1776562;79;22561;-83
2021/08/04 00:44:20;;;;;;;5.20;4.00;;;;;;;13.35;75.72;101155.61;1781683;79;21548;-83
2021/08/04 00:46:47;;;;;;;5.72;4.05;;;;;;;13.35;75.77;101155.17;1784982;80;20991;-83
2021/08/04 00:49:14;;;;;;;4.87;4.25;;;;;;;13.33;75.83;101152.92;1784950;79;21507;-84
2021/08/04 00:51:41;;;;;;;7.30;4.50;;;;;;;13.34;75.84;101144.55;1785044;80;21595;-83
2021/08/04 00:54:08;;;;;;;5.30;4.30;;;;;;;13.34;75.84;101151.16;1785099;80;21744;-83
2021/08/04 00:56:36;;;;;;;8.18;4.70;;;;;;;13.34;75.93;101151.16;1784930;80;21593;-83
2021/08/04 00:59:04;;;;;;;6.65;4.90;;;;;;;13.32;75.87;101150.25;1784805;80;21022;-83
2021/08/04 01:01:57;;;;;;;8.63;4.53;;;;;;;13.30;75.91;101150.20;1785019;80;21022;-83
2021/08/04 01:04:33;;;;;;;6.62;4.55;;;;;;;13.29;75.91;101145.77;1782750;80;21099;-82
2021/08/04 01:07:17;;;;;;;6.45;4.80;;;;;;;13.27;75.90;101145.25;1761155;81;21762;-82
2021/08/04 01:09:51;;;;;;;7.35;4.53;;;;;;;13.21;75.94;101144.70;1767442;80;21093;-82
2021/08/04 01:12:28;;;;;;;10.32;4.62;;;;;;;13.18;76.00;101144.22;1762228;80;21769;-82
2021/08/04 01:15:01;;;;;;;7.30;4.08;;;;;;;13.16;76.06;101141.97;1761272;80;21106;-82
2021/08/04 01:17:28;;;;;;;7.80;4.90;;;;;;;13.12;76.09;101141.45;1765467;80;21110;-82
2021/08/04 01:20:15;;;;;;;7.42;5.33;;;;;;;13.10;76.10;101144.91;1765629;80;21749;-82
2021/08/04 01:23:20;;;;;;;9.50;5.25;;;;;;;13.08;76.20;101150.59;1761744;80;21121;-82
2021/08/04 01:26:01;;;;;;;7.45;4.75;;;;;;;13.03;76.21;101151.39;1769929;80;20999;-82
2021/08/04 01:28:36;;;;;;;7.53;5.70;;;;;;;13.02;76.28;101156.64;1776198;80;21077;-83
2021/08/04 01:31:07;;;;;;;9.48;5.37;;;;;;;13.01;76.32;101153.55;1770470;80;21528;-82
2021/08/04 01:33:35;;;;;;;8.53;5.60;;;;;;;13.01;76.42;101153.11;1776507;79;21819;-82
2021/08/04 01:36:01;;;;;;;8.75;5.65;;;;;;;12.98;76.48;101143.78;1776255;79;21015;-82
2021/08/04 01:38:28;;;;;;;9.15;5.95;;;;;;;12.98;76.50;101146.87;1776413;79;21516;-83
2021/08/04 01:40:55;;;;;;;7.03;5.47;;;;;;;12.97;76.52;101143.34;1775963;79;21081;-83
2021/08/04 01:43:22;;;;;;;7.35;5.78;;;;;;;12.97;76.53;101138.46;1776474;80;21517;-82
2021/08/04 01:45:49;;;;;;;7.72;6.03;;;;;;;12.96;76.52;101144.19;1711340;83;21790;-82
2021/08/04 01:48:15;;;;;;;8.50;5.42;;;;;;;12.94;76.49;101146.34;1716037;83;21481;-82
2021/08/04 01:50:42;;;;;;;8.85;5.35;;;;;;;12.91;76.51;101137.90;1735626;82;21123;-82
2021/08/04 01:53:09;;;;;;;7.28;5.67;;;;;;;12.89;76.51;101134.34;1738075;82;21628;-83
2021/08/04 01:55:35;;;;;;;9.73;5.60;;;;;;;12.88;76.53;101135.22;1738589;81;21012;-82
2021/08/04 01:58:02;;;;;;;7.67;5.40;;;;;;;12.86;76.53;101139.98;1738459;82;21757;-82
2021/08/04 02:00:29;;;;;;;11.15;5.92;;;;;;;12.82;76.54;101132.45;1738318;82;21059;-82
2021/08/04 02:02:57;;;;;;;8.78;5.92;;;;;;;12.80;76.58;101133.73;1738150;82;32885;-82
2021/08/04 02:05:23;;;;;;;10.93;5.53;;;;;;;12.79;76.58;101137.65;1738161;82;21789;-82
2021/08/04 02:08:25;;;;;;;10.90;5.62;;;;;;;12.78;76.62;101143.78;1738410;82;21447;-82
2021/08/04 02:11:26;;;;;;;7.35;4.97;;;;;;;12.76;76.62;101137.57;1710596;83;22554;-82
2021/08/04 02:14:02;;;;;;;7.97;4.78;;;;;;;12.73;76.61;101138.41;1768280;80;21086;-83
2021/08/04 02:16:58;;;;;;;5.62;4.75;;;;;;;12.71;76.65;101144.09;1765368;81;21502;-83
2021/08/04 02:19:45;;;;;;;7.15;5.33;;;;;;;12.68;76.70;101140.05;1765612;80;21419;-83
2021/08/04 02:22:26;;;;;;;8.80;4.72;;;;;;;12.66;76.72;101144.84;1765785;80;21020;-83
2021/08/04 02:24:57;;;;;;;7.58;4.37;;;;;;;12.61;76.76;101149.59;1768803;80;21778;-83
2021/08/04 02:27:24;;;;;;;9.28;4.55;;;;;;;12.59;76.86;101148.67;1784811;79;20991;-83
2021/08/04 02:29:51;;;;;;;7.20;4.55;;;;;;;12.59;76.91;101153.03;1785061;80;21015;-84
2021/08/04 02:32:18;;;;;;;7.35;4.87;;;;;;;12.58;76.92;101151.27;1784999;80;20999;-83
2021/08/04 02:34:45;;;;;;;7.00;4.58;;;;;;;12.55;76.96;101152.51;1784946;80;21065;-83
2021/08/04 02:37:12;;;;;;;6.55;4.60;;;;;;;12.54;77.01;101151.63;1785114;80;22561;-83
2021/08/04 02:39:38;;;;;;;9.43;4.78;;;;;;;12.52;77.05;101149.78;1785009;80;20983;-84
2021/08/04 02:42:05;;;;;;;6.53;4.47;;;;;;;12.52;77.05;101153.74;1785052;80;21062;-83
2021/08/04 02:44:32;;;;;;;8.45;4.67;;;;;;;12.49;77.05;101147.09;1756241;80;21046;-83
2021/08/04 02:46:59;;;;;;;8.73;5.20;;;;;;;12.50;77.14;101146.22;1785149;80;21030;-84
2021/08/04 02:49:25;;;;;;;8.03;4.42;;;;;;;12.48;77.13;101144.89;1784963;80;22539;-84
2021/08/04 02:51:52;;;;;;;8.40;4.80;;;;;;;12.48;77.17;101146.20;1784775;80;21028;-83
2021/08/04 02:54:19;;;;;;;8.28;4.90;;;;;;;12.49;77.18;101140.05;1785066;80;21042;-83
2021/08/04 02:56:46;;;;;;;4.90;4.17;;;;;;;12.49;77.16;101140.49;1785123;80;21493;-84
2021/08/04 02:59:13;;;;;;;6.45;4.70;;;;;;;12.49;77.22;101145.33;1785185;79;21023;-83
2021/08/04 03:01:39;;;;;;;6.53;4.62;;;;;;;12.49;77.17;101141.81;1740272;82;21737;-84
2021/08/04 03:04:06;;;;;;;7.58;4.70;;;;;;;12.50;77.21;101148.86;1697894;84;21047;-83
2021/08/04 03:06:33;;;;;;;6.25;4.33;;;;;;;12.50;77.21;101143.58;1713151;83;21066;-83
2021/08/04 03:08:59;;;;;;;6.70;4.12;;;;;;;12.49;77.22;101147.97;1715289;83;21032;-83
2021/08/04 03:11:26;;;;;;;6.00;4.28;;;;;;;12.51;77.27;101149.34;1738951;82;21493;-83
2021/08/04 03:13:53;;;;;;;7.45;4.70;;;;;;;12.51;77.26;101149.34;1738342;82;21742;-83
2021/08/04 03:16:20;;;;;;;9.13;4.83;;;;;;;12.51;77.30;101144.05;1738105;81;21395;-83
2021/08/04 03:18:46;;;;;;;6.87;5.03;;;;;;;12.54;77.31;101146.78;1738298;81;21008;-83
2021/08/04 03:21:13;;;;;;;10.58;4.40;;;;;;;12.54;77.32;101150.74;1761923;80;21031;-83
2021/08/04 03:23:40;;;;;;;5.83;4.58;;;;;;;12.59;77.34;101154.36;1776617;80;21050;-83
2021/08/04 03:26:06;;;;;;;6.65;4.47;;;;;;;12.64;77.34;101154.05;1781976;79;21753;-84
2021/08/04 03:28:33;;;;;;;6.33;4.65;;;;;;;12.66;77.32;101148.37;1784663;80;21049;-83
2021/08/04 03:31:00;;;;;;;6.90;4.95;;;;;;;12.72;77.35;101153.78;1785052;80;21047;-84
2021/08/04 03:33:27;;;;;;;6.92;5.25;;;;;;;12.78;77.35;101153.94;1785249;80;20986;-84
2021/08/04 03:35:53;;;;;;;10.88;6.12;;;;;;;12.84;77.33;101154.06;1785019;79;21008;-83
2021/08/04 03:38:20;;;;;;;9.55;5.60;;;;;;;12.93;77.31;101156.44;1785136;80;21754;-83
2021/08/04 03:40:47;;;;;;;10.28;4.80;;;;;;;13.01;77.26;101154.44;1785250;80;20999;-84
2021/08/04 03:43:13;;;;;;;7.97;5.20;;;;;;;13.15;77.22;101156.47;1785019;80;21012;-83
2021/08/04 03:45:40;;;;;;;8.08;4.75;;;;;;;13.36;77.25;101160.02;1785098;80;21370;-83
2021/08/04 03:48:07;;;;;;;6.65;4.78;;;;;;;13.77;77.55;101158.60;1784983;80;21006;-83
2021/08/04 03:50:33;;;;;;;8.05;5.00;;;;;;;14.80;78.50;101152.36;1785097;80;22405;-84
2021/08/04 03:53:00;;;;;;;6.95;4.37;;;;;;;16.17;78.07;101147.75;1784927;80;21058;-84
2021/08/04 03:55:27;;;;;;;6.35;4.05;;;;;;;17.65;76.84;101145.00;1785051;80;21537;-84
2021/08/04 03:57:53;;;;;;;5.58;3.80;;;;;;;19.01;74.74;101141.89;1784960;80;21018;-83
2021/08/04 04:00:20;;;;;;;5.33;3.90;;;;;;;20.22;72.98;101143.41;1784889;80;21038;-84
2021/08/04 04:02:46;;;;;;;4.53;3.87;;;;;;;21.28;71.05;101134.70;1766953;80;22677;-84
2021/08/04 04:05:13;;;;;;;6.78;4.28;;;;;;;22.33;69.13;101143.44;1765393;81;21065;-84
2021/08/04 04:07:40;;;;;;;6.50;3.77;;;;;;;23.13;66.77;101139.74;1765540;81;21055;-84
2021/08/04 04:10:07;;;;;;;5.40;3.80;;;;;;;23.93;64.97;101141.98;1765440;80;21031;-84
2021/08/04 04:12:34;;;;;;;5.08;3.47;;;;;;;24.40;62.72;101151.56;1765517;80;21051;-86
2021/08/04 04:15:01;;;;;;;5.47;3.10;;;;;;;24.77;61.89;101149.71;1730079;81;21287;-84
2021/08/04 04:17:28;;;;;;;4.55;3.25;;;;;;;26.35;59.49;101137.23;1764960;80;21019;-84
2021/08/04 04:19:54;;;;;;;4.37;3.17;;;;;;;26.35;59.49;101137.23;1765491;81;21024;-84
2021/08/04 04:22:21;;;;;;;5.17;3.37;;;;;;;27.20;57.79;101155.81;1765484;80;21031;-86
2021/08/04 04:24:47;;;;;;;5.75;3.40;;;;;;;27.84;56.35;101160.58;1764931;81;21071;-84
2021/08/04 04:27:14;;;;;;;4.40;3.08;;;;;;;28.56;55.20;101164.83;1769844;80;22622;-85
2021/08/04 04:29:41;;;;;;;5.33;3.67;;;;;;;29.30;53.60;101160.16;1765442;80;21477;-84
2021/08/04 04:32:08;;;;;;;5.40;4.78;;;;;;;29.95;52.14;101162.92;1765517;81;21027;-84
2021/08/04 04:34:34;;;;;;;6.12;4.78;;;;;;;30.43;50.65;101167.35;1765324;81;21020;-85
2021/08/04 04:37:01;;;;;;;5.53;3.47;;;;;;;30.74;49.03;101170.67;1765172;80;21533;-85
2021/08/04 04:39:28;;;;;;;6.58;5.80;;;;;;;29.89;47.12;101169.15;1782183;80;21729;-84
2021/08/04 04:41:55;;;;;;;4.58;3.02;;;;;;;29.41;47.78;101164.16;1784640;80;21002;-84
2021/08/04 04:44:21;;;;;;;4.40;3.00;;;;;;;29.59;46.67;101166.94;1784548;80;20999;-86
2021/08/04 04:46:48;;;;;;;4.85;3.10;;;;;;;29.31;45.73;101161.45;1784499;80;21001;-86
2021/08/04 04:49:15;;;;;;;5.85;3.42;;;;;;;28.04;45.36;101163.38;1784615;80;21080;-85
2021/08/04 04:51:42;;;;;;;4.53;3.25;;;;;;;26.67;45.38;101163.16;1784800;80;21744;-87
2021/08/04 04:54:10;;;;;;;4.05;3.58;;;;;;;25.24;45.92;101169.52;1701837;82;21584;-86
2021/08/04 04:56:37;;;;;;;5.67;3.47;;;;;;;23.95;46.74;101173.75;1736292;81;21016;-84
2021/08/04 04:59:03;;;;;;;3.67;2.87;;;;;;;22.90;47.68;101174.15;1714151;83;21032;-84
2021/08/04 05:01:31;;;;;;;4.70;3.37;;;;;;;22.02;48.62;101167.19;1714711;82;21074;-86
2021/08/04 05:03:58;;;;;;;4.37;3.50;;;;;;;21.42;49.63;101172.91;1715082;83;21784;-83
2021/08/04 05:06:24;;;;;;;5.90;3.22;;;;;;;20.95;50.57;101179.73;1715145;83;21011;-84
2021/08/04 05:08:51;;;;;;;6.62;4.65;;;;;;;20.69;51.33;101177.33;1715422;83;21575;-85
2021/08/04 05:11:18;;;;;;;5.58;3.27;;;;;;;20.37;51.57;101178.48;1715513;82;21094;-84
2021/08/04 05:13:44;;;;;;;4.08;3.17;;;;;;;20.09;52.27;101177.36;1715593;83;21070;-84
2021/08/04 05:16:11;;;;;;;8.20;4.20;;;;;;;19.91;52.73;101189.05;1715330;82;21777;-84
2021/08/04 05:18:38;;;;;;;5.30;4.17;;;;;;;19.74;53.11;101185.61;1715435;83;21012;-85
2021/08/04 05:21:04;;;;;;;4.17;3.30;;;;;;;19.58;53.35;101183.45;1715563;83;21013;-84
2021/08/04 05:23:31;;;;;;;6.28;3.12;;;;;;;19.42;53.79;101179.49;1715403;83;21403;-84
2021/08/04 05:25:58;;;;;;;5.80;3.50;;;;;;;19.22;54.06;101179.60;1715308;83;21078;-84
2021/08/04 05:28:24;;;;;;;6.15;3.50;;;;;;;19.07;54.54;101176.08;1715378;83;22556;-84
2021/08/04 05:30:52;;;;;;;4.90;2.75;;;;;;;19.02;55.03;101182.33;1715204;83;21023;-84
2021/08/04 05:33:18;;;;;;;4.47;3.02;;;;;;;19.19;55.54;101175.59;1716426;83;21615;-84
2021/08/04 05:35:45;;;;;;;9.78;4.47;;;;;;;19.47;55.65;101168.81;1715212;82;21372;-84
2021/08/04 05:38:11;;;;;;;5.72;3.75;;;;;;;19.65;55.47;101179.83;1715116;83;21038;-84
2021/08/04 05:40:38;;;;;;;6.05;4.17;;;;;;;19.83;55.70;101176.20;1715285;83;21833;-84
2021/08/04 05:43:05;;;;;;;7.35;3.58;;;;;;;19.85;55.35;101178.41;1715521;83;21000;-84
2021/08/04 05:45:33;;;;;;;4.65;3.45;;;;;;;19.67;55.34;101182.49;1716241;83;21030;-84
2021/08/04 05:48:00;;;;;;;5.75;3.62;;;;;;;19.38;55.55;101180.41;1715565;82;21082;-84
2021/08/04 05:50:27;;;;;;;6.60;3.42;;;;;;;19.20;56.04;101177.81;1715529;83;21023;-84
2021/08/04 05:52:53;;;;;;;6.72;3.40;;;;;;;19.13;56.35;101181.42;1715524;83;21701;-84
2021/08/04 05:55:20;;;;;;;7.80;3.30;;;;;;;19.04;56.66;101176.99;1715449;83;21063;-84
2021/08/04 05:57:47;;;;;;;4.15;2.95;;;;;;;18.94;56.92;101180.56;1715628;83;21627;-84
2021/08/04 06:00:13;;;;;;;4.42;3.00;;;;;;;18.86;57.08;101181.03;1715507;83;21071;-84
2021/08/04 06:02:40;;;;;;;4.05;3.20;;;;;;;18.76;57.44;101181.02;1715499;83;21019;-84
2021/08/04 06:05:07;;;;;;;9.28;3.47;;;;;;;18.70;57.66;101184.16;1715646;83;21759;-84
2021/08/04 06:07:34;;;;;;;7.00;3.92;;;;;;;18.67;58.05;101178.37;1715421;83;21086;-84
2021/08/04 06:10:00;;;;;;;9.70;3.67;;;;;;;18.64;58.26;101185.06;1713318;82;21033;-84
2021/08/04 06:12:27;;;;;;;8.30;3.60;;;;;;;18.68;58.51;101187.28;1717180;83;21081;-84
2021/08/04 06:14:54;;;;;;;6.92;4.62;;;;;;;18.77;58.78;101185.90;1715342;83;21032;-84
2021/08/04 06:17:21;;;;;;;6.53;3.67;;;;;;;18.88;58.81;101182.80;1715213;83;21801;-84
2021/08/04 06:19:47;;;;;;;11.10;4.47;;;;;;;18.92;58.92;101181.92;1715449;83;20999;-84
2021/08/04 06:22:14;;;;;;;5.45;3.40;;;;;;;18.99;59.05;101176.11;1715624;83;21007;-84
2021/08/04 06:24:40;;;;;;;7.90;4.15;;;;;;;19.02;59.09;101176.11;1715531;82;21019;-84
2021/08/04 06:27:07;;;;;;;9.33;4.33;;;;;;;18.98;58.98;101177.90;1708509;83;21580;-84
2021/08/04 06:29:34;;;;;;;5.42;3.17;;;;;;;19.02;59.27;101181.45;1709888;84;21786;-84
2021/08/04 06:32:00;;;;;;;6.92;5.10;;;;;;;19.06;59.21;101179.20;1709966;83;21090;-84
2021/08/04 06:34:27;;;;;;;4.47;3.22;;;;;;;19.11;59.26;101181.42;1709985;83;21063;-84
2021/08/04 06:36:54;;;;;;;7.05;5.92;;;;;;;19.22;59.37;101183.61;1709921;83;21411;-84
2021/08/04 06:39:20;;;;;;;5.10;4.20;;;;;;;19.30;59.27;101186.70;1719434;83;21063;-84
2021/08/04 06:41:47;;;;;;;3.37;2.80;;;;;;;19.34;59.02;101188.45;1715333;82;21867;-84
2021/08/04 06:44:14;;;;;;;5.35;2.60;;;;;;;19.35;58.71;101187.54;1715650;83;21517;-84
2021/08/04 06:46:40;;;;;;;4.12;2.37;;;;;;;19.37;58.63;101192.42;1715205;83;21117;-84
2021/08/04 06:49:07;;;;;;;5.65;2.60;;;;;;;19.42;58.65;101188.84;1715466;83;21019;-84
2021/08/04 06:54:00;;;;;;;4.22;2.20;;;;;;;19.61;58.58;101187.00;1707568;83;21821;-84
2021/08/04 06:56:27;;;;;;;3.92;1.75;;;;;;;19.70;57.77;101193.17;1705068;83;21083;-85
2021/08/04 06:58:54;;;;;;;3.22;2.00;;;;;;;19.68;57.20;101190.95;1705156;83;21106;-84
2021/08/04 07:01:20;;;;;;;3.98;2.52;;;;;;;19.77;56.93;101189.15;1704962;83;21055;-84
2021/08/04 07:03:47;;;;;;;2.62;1.82;;;;;;;19.83;56.58;101190.89;1705027;83;21011;-84
2021/08/04 07:06:14;;;;;;;3.55;2.00;;;;;;;19.86;56.44;101190.89;1773662;80;21731;-84
2021/08/04 07:08:40;;;;;;;2.55;1.92;;;;;;;19.93;56.33;101193.97;1776255;79;20999;-84
2021/08/04 07:11:07;;;;;;;4.05;2.20;;;;;;;20.06;56.15;101195.20;1776309;80;21015;-85
2021/08/04 07:13:34;;;;;;;3.27;1.85;;;;;;;20.18;55.95;101193.78;1765337;79;21227;-85
2021/08/04 07:16:01;;;;;;;2.87;2.02;;;;;;;20.28;55.48;101185.23;1771672;80;20996;-84
2021/08/04 07:18:27;;;;;;;3.67;1.80;;;;;;;20.36;55.17;101184.71;1765388;80;22114;-84
2021/08/04 07:20:55;;;;;;;4.12;2.37;;;;;;;20.44;54.83;101184.22;1765395;80;21019;-84
2021/08/04 07:23:22;;;;;;;2.47;1.67;;;;;;;20.53;54.46;101192.16;1765400;81;21023;-84
2021/08/04 07:25:49;;;;;;;9.35;3.33;;;;;;;20.58;54.50;101186.75;1764862;80;21138;-84
2021/08/04 07:28:17;;;;;;;3.75;2.40;;;;;;;20.64;53.72;101188.52;1766487;80;21038;-84
2021/08/04 07:30:44;;;;;;;3.98;2.12;;;;;;;20.59;53.70;101185.41;1776174;80;22585;-84
2021/08/04 07:33:10;;;;;;;3.33;2.33;;;;;;;20.58;53.69;101184.95;1776214;79;21628;-84
2021/08/04 07:35:37;;;;;;;2.77;2.12;;;;;;;20.61;53.66;101185.86;1776347;79;21027;-85
2021/08/04 07:38:03;;;;;;;3.55;1.82;;;;;;;20.63;53.62;101183.63;1776280;79;21036;-85
2021/08/04 07:40:30;;;;;;;4.83;2.15;;;;;;;20.68;53.54;101183.11;1776360;79;21090;-86
2021/08/04 07:42:57;;;;;;;2.42;1.65;;;;;;;20.64;53.35;101186.72;1776301;79;21748;-85
2021/08/04 07:45:23;;;;;;;4.90;2.12;;;;;;;20.62;53.44;101186.31;1776108;80;21019;-84
2021/08/04 07:47:50;;;;;;;2.33;1.82;;;;;;;20.62;53.38;101190.32;1776294;79;21353;-85
2021/08/04 07:50:17;;;;;;;5.12;2.58;;;;;;;20.61;53.54;101184.52;1775939;79;20995;-87
2021/08/04 07:52:43;;;;;;;5.25;2.20;;;;;;;20.61;53.55;101189.44;1776218;79;21006;-84
2021/08/04 07:55:13;;;;;;;4.53;2.30;;;;;;;20.57;53.44;101186.30;1776377;79;21752;-85
2021/08/04 07:57:39;;;;;;;2.95;1.98;;;;;;;20.53;53.52;101184.14;1766465;79;21010;-84
2021/08/04 08:00:08;;;;;;;1.90;1.75;;;;;;;20.49;53.49;101185.50;1771164;80;21069;-84
2021/08/04 08:02:35;;;;;;;6.28;2.20;;;;;;;20.53;53.67;101185.47;1776417;80;21030;-85
2021/08/04 08:05:02;;;;;;;3.55;2.02;;;;;;;20.65;53.71;101185.83;1776179;79;21054;-85
2021/08/04 08:07:29;;;;;;;3.67;1.75;;;;;;;20.78;53.57;101186.60;1776315;80;21744;-84
2021/08/04 08:09:55;;;;;;;4.05;2.27;;;;;;;20.92;53.43;101187.78;1776298;80;21015;-84
2021/08/04 08:12:22;;;;;;;4.58;3.17;;;;;;;21.14;53.41;101187.97;1776264;79;21268;-85
2021/08/04 08:14:49;;;;;;;2.47;2.02;;;;;;;21.42;53.33;101182.75;1776312;79;21603;-84
2021/08/04 08:17:16;;;;;;;3.30;3.00;;;;;;;21.61;52.94;101183.41;1776337;80;21074;-84
2021/08/04 08:19:42;;;;;;;7.72;2.50;;;;;;;21.74;52.66;101183.67;1776266;79;22564;-85
2021/08/04 08:22:09;;;;;;;4.10;2.85;;;;;;;21.84;52.54;101183.08;1775060;79;21004;-84
2021/08/04 08:24:36;;;;;;;3.00;2.52;;;;;;;21.86;52.44;101177.23;1765095;81;21039;-84
2021/08/04 08:27:02;;;;;;;2.62;2.10;;;;;;;21.90;52.34;101179.87;1765117;80;21513;-85
2021/08/04 08:29:29;;;;;;;5.00;4.17;;;;;;;21.94;51.54;101183.36;1765432;80;21012;-85
2021/08/04 08:31:55;;;;;;;3.70;2.55;;;;;;;21.96;50.43;101184.67;1765274;80;21721;-85
2021/08/04 08:34:22;;;;;;;3.50;1.92;;;;;;;21.97;50.15;101178.42;1765304;81;20999;-85
2021/08/04 08:36:49;;;;;;;3.42;1.70;;;;;;;21.98;50.29;101177.50;1764624;80;21071;-84
2021/08/04 08:39:16;;;;;;;5.20;2.02;;;;;;;22.07;50.36;101177.36;1764734;81;21066;-84
2021/08/04 08:41:45;;;;;;;2.87;1.60;;;;;;;22.20;50.14;101178.05;1765242;81;21094;-85
2021/08/04 08:44:12;;;;;;;2.35;2.05;;;;;;;22.25;49.86;101179.78;1765322;80;21695;-84
2021/08/04 08:46:38;;;;;;;7.00;2.92;;;;;;;22.31;49.55;101170.75;1765438;80;21120;-85
2021/08/04 08:49:05;;;;;;;2.27;1.85;;;;;;;22.41;49.39;101178.17;1765462;80;21509;-85
2021/08/04 08:51:32;;;;;;;3.27;2.58;;;;;;;22.70;49.03;101153.05;1765310;80;21577;-84
2021/08/04 08:53:59;;;;;;;1.70;1.60;;;;;;;23.08;49.08;101147.41;1765380;80;21019;-85
2021/08/04 08:56:25;;;;;;;1.75;1.35;;;;;;;23.08;49.08;101147.41;1765219;80;21723;-85
2021/08/04 08:58:54;;;;;;;2.85;1.65;;;;;;;23.59;48.59;101177.68;1756026;81;21019;-85
2021/08/04 09:01:36;;;;;;;1.95;1.55;;;;;;;23.95;48.30;101169.72;1765390;80;21075;-85
2021/08/04 09:04:06;;;;;;;2.85;1.90;;;;;;;24.24;47.75;101163.64;1765199;80;21581;-85
2021/08/04 09:06:46;;;;;;;2.25;1.35;;;;;;;24.33;47.14;101147.73;1759137;80;21226;-85
2021/08/04 09:09:19;;;;;;;1.55;1.42;;;;;;;24.59;46.86;101169.48;1765168;81;21456;-85
2021/08/04 09:11:52;;;;;;;2.22;1.50;;;;;;;24.73;46.55;101162.37;1765344;81;21493;-85
2021/08/04 09:14:28;;;;;;;3.15;1.47;;;;;;;24.84;46.03;101167.47;1752905;81;21035;-85
2021/08/04 09:17:03;;;;;;;1.75;1.32;;;;;;;24.93;45.41;101169.03;1764428;81;21047;-85
2021/08/04 09:19:29;;;;;;;1.85;1.50;;;;;;;25.03;45.23;101165.14;1761235;81;21479;-84
2021/08/04 09:22:24;;;;;;;2.27;1.50;;;;;;;25.08;44.70;101163.20;1765361;80;22916;-85
2021/08/04 09:25:10;;;;;;;5.95;1.50;;;;;;;25.15;44.58;101167.94;1765038;80;21113;-85
2021/08/04 09:27:41;;;;;;;5.80;4.58;;;;;;;25.20;43.89;101161.95;1762956;81;21062;-85
2021/08/04 09:30:10;;;;;;;5.65;1.87;;;;;;;25.25;43.44;101159.18;1765074;81;21059;-84
2021/08/04 09:32:37;;;;;;;3.05;2.30;;;;;;;25.20;43.31;101155.22;1765228;80;21587;-83
2021/08/04 09:35:10;;;;;;;3.40;1.45;;;;;;;25.22;42.74;101156.06;1765438;80;21686;-83
2021/08/04 09:37:37;;;;;;;;;;;;;;;25.26;42.69;101154.19;1767961;80;21043;-84
2021/08/04 09:40:05;;;;;;;9.95;2.20;;;;;;;25.31;42.09;101155.82;1770652;80;20175;-84
2021/08/04 09:42:53;;;;;;;3.30;1.80;;;;;;;25.31;42.34;101151.78;1772854;79;21058;-83
2021/08/04 09:45:27;;;;;;;1.10;1.00;;;;;;;25.27;41.76;101154.16;1771386;80;21046;-84
2021/08/04 09:48:11;;;;;;;2.50;1.02;;;;;;;25.18;41.35;101145.83;1743997;80;21932;-84
2021/08/04 09:50:59;;;;;;;3.58;0.93;;;;;;;25.12;40.88;101150.06;1765448;80;21027;-84
2021/08/04 09:53:35;;;;;;;5.70;2.25;;;;;;;25.09;40.94;101150.14;1771215;80;21544;-84
2021/08/04 09:56:10;;;;;;;4.25;1.30;;;;;;;25.05;40.70;101143.55;1776103;79;21311;-84
2021/08/04 09:58:41;;;;;;;1.42;1.10;;;;;;;25.12;40.56;101139.76;1775842;80;21195;-84
2021/08/04 10:01:11;;;;;;;3.92;1.40;;;;;;;25.20;40.78;101146.66;1775367;80;21817;-84
2021/08/04 10:03:36;;;;;;;1.40;1.30;;;;;;;25.33;41.01;101145.87;1784823;79;21069;-84
2021/08/04 10:06:06;;;;;;;2.50;1.27;;;;;;;25.38;40.51;101140.36;1784964;80;21053;-84
2021/08/04 10:08:32;;;;;;;2.83;1.50;;;;;;;25.33;40.34;101142.30;1784868;79;21078;-84
2021/08/04 10:10:59;;;;;;;3.42;1.65;;;;;;;25.38;40.32;101145.28;1784975;80;21504;-84
2021/08/04 10:13:28;;;;;;;2.10;1.30;;;;;;;25.54;40.18;101146.15;1784986;80;21756;-84
2021/08/04 10:16:02;;;;;;;4.78;2.60;;;;;;;25.71;40.30;101147.84;1784734;80;21050;-84
2021/08/04 10:18:30;;;;;;;2.77;1.45;;;;;;;25.79;39.72;101144.45;1771813;80;21030;-84
2021/08/04 10:21:11;;;;;;;4.33;1.57;;;;;;;25.85;39.89;101140.67;1775991;79;21039;-84
2021/08/04 10:23:32;;;;;;;3.00;1.50;;;;;;;25.88;39.72;101148.65;1776572;80;21007;-84
2021/08/04 10:25:59;;;;;;;5.10;1.70;;;;;;;25.77;39.41;101149.45;1776330;79;21727;-84
2021/08/04 10:28:27;;;;;;;3.35;1.62;;;;;;;25.66;39.45;101146.22;1776661;80;21011;-84
2021/08/04 10:30:53;;;;;;;3.17;2.30;;;;;;;25.43;39.63;101148.30;1776321;79;21516;-84
2021/08/04 10:33:20;;;;;;;2.37;1.57;;;;;;;25.27;40.04;101140.68;1776272;79;21329;-84
2021/08/04 10:35:51;;;;;;;6.30;2.92;;;;;;;25.16;40.25;101143.65;1776336;79;20983;-84
2021/08/04 10:38:21;;;;;;;4.30;2.27;;;;;;;24.91;40.30;101142.14;1774221;80;22569;-84
2021/08/04 10:41:12;;;;;;;4.55;1.87;;;;;;;24.60;40.38;101139.41;1776178;80;20992;-84
2021/08/04 10:43:49;;;;;;;3.15;1.90;;;;;;;24.34;40.73;101138.72;1773678;80;21007;-83
2021/08/04 10:46:35;;;;;;;3.52;1.87;;;;;;;23.88;40.95;101138.55;1773385;80;21475;-83
2021/08/04 10:49:10;;;;;;;3.92;1.57;;;;;;;23.61;41.26;101148.53;1745391;80;21038;-84
2021/08/04 10:51:43;;;;;;;2.72;1.77;;;;;;;23.41;41.33;101141.38;1731539;82;21830;-83
2021/08/04 10:54:19;;;;;;;10.60;2.83;;;;;;;23.40;41.71;101144.50;1711957;83;21429;-83
2021/08/04 10:56:51;;;;;;;3.10;1.98;;;;;;;23.40;41.49;101134.22;1715514;83;21286;-84
2021/08/04 11:02:04;;;;;;;3.72;1.90;;;;;;;23.38;42.07;101136.06;1715520;83;21016;-84
2021/08/04 11:04:45;;;;;;;3.70;2.55;;;;;;;23.28;42.32;101142.09;1764080;80;22694;-85
2021/08/04 11:07:12;;;;;;;6.78;1.77;;;;;;;23.18;42.72;101144.53;1784877;80;21105;-84
2021/08/04 11:09:46;;;;;;;4.60;2.42;;;;;;;23.05;42.80;101146.15;1784705;80;21019;-84
2021/08/04 11:12:18;;;;;;;6.25;2.10;;;;;;;22.99;42.97;101152.05;1763353;80;21116;-83
2021/08/04 11:14:53;;;;;;;3.70;2.10;;;;;;;22.86;43.12;101146.03;1784856;80;21046;-84
2021/08/04 11:17:31;;;;;;;3.22;2.22;;;;;;;22.65;43.40;101154.05;1784704;80;22611;-84
2021/08/04 11:20:04;;;;;;;4.00;2.25;;;;;;;22.50;43.73;101128.39;1784760;80;21030;-84
2021/08/04 11:22:47;;;;;;;3.52;2.30;;;;;;;22.46;43.80;101142.30;1725923;82;21533;-85
2021/08/04 11:25:41;;;;;;;6.28;2.52;;;;;;;22.32;43.97;101157.31;1712688;83;21463;-84
2021/08/04 11:28:14;;;;;;;4.28;2.05;;;;;;;22.17;44.19;101152.61;1776757;78;21057;-85
2021/08/04 11:30:48;;;;;;;2.67;2.00;;;;;;;22.05;44.42;101155.05;1775532;80;22757;-84
2021/08/04 11:33:26;;;;;;;6.03;3.83;;;;;;;21.93;44.62;101151.66;1776396;80;21811;-84
2021/08/04 11:36:16;;;;;;;3.80;2.05;;;;;;;21.87;44.68;101151.77;1768564;80;21584;-85
2021/08/04 11:39:08;;;;;;;4.25;1.90;;;;;;;21.88;44.83;101153.52;1775265;80;21518;-84